Time;durP1;ratioP1;P1;durP2;ratioP2;P2;SDS_P1;SDS_P2;PMS_P1;PMS_P2;Temp;Humidity;BMP_temperature;BMP_pressure;BME280_temperature;BME280_humidity;BME280_pressure;Samples;Min_cycle;Max_cycle;Signal;HPM_P1;HPM_P2
2022/03/30 00:00:11;;;;;;;22.50;15.77;;;;;;;;;;5032049;28;20037;-79
2022/03/30 00:02:37;;;;;;;25.85;14.75;;;;;;;;;;5032366;28;20061;-76
2022/03/30 00:05:04;;;;;;;20.70;14.73;;;;;;;;;;5033168;28;20104;-76
2022/03/30 00:07:31;;;;;;;21.30;15.77;;;;;;;;;;5033544;28;20033;-77
2022/03/30 00:10:02;;;;;;;21.35;14.90;;;;;;;;;;5033350;28;20044;-80
2022/03/30 00:12:28;;;;;;;24.58;14.55;;;;;;;;;;5032325;28;20037;-78
2022/03/30 00:14:58;;;;;;;23.17;15.80;;;;;;;;;;5033464;28;20022;-80
2022/03/30 00:17:25;;;;;;;23.38;11.90;;;;;;;;;;5032012;28;20119;-77
2022/03/30 00:19:51;;;;;;;15.18;11.82;;;;;;;;;;5033134;28;20034;-77
2022/03/30 00:22:17;;;;;;;17.30;12.18;;;;;;;;;;5031471;28;20449;-79
2022/03/30 00:24:46;;;;;;;17.38;10.90;;;;;;;;;;5033109;28;20469;-78
2022/03/30 00:27:12;;;;;;;19.08;11.75;;;;;;;;;;5032780;28;20025;-77
2022/03/30 00:29:39;;;;;;;20.05;12.30;;;;;;;;;;5033104;28;20053;-76
2022/03/30 00:32:05;;;;;;;19.02;11.43;;;;;;;;;;5032605;28;20083;-78
2022/03/30 00:34:31;;;;;;;20.00;11.05;;;;;;;;;;5032881;28;20505;-77
2022/03/30 00:36:58;;;;;;;19.13;11.82;;;;;;;;;;5032817;28;20029;-77
2022/03/30 00:39:24;;;;;;;19.40;12.60;;;;;;;;;;5031887;28;20040;-77
2022/03/30 00:41:50;;;;;;;20.50;11.50;;;;;;;;;;5031560;28;20381;-77
2022/03/30 00:44:16;;;;;;;24.40;14.88;;;;;;;;;;5032571;28;20029;-78
2022/03/30 00:46:43;;;;;;;30.85;17.63;;;;;;;;;;5032804;28;20080;-78
2022/03/30 00:49:09;;;;;;;24.02;15.15;;;;;;;;;;5032553;28;20370;-77
2022/03/30 00:51:36;;;;;;;20.63;14.45;;;;;;;;;;5032573;28;20100;-77
2022/03/30 00:54:02;;;;;;;20.23;14.70;;;;;;;;;;5032442;28;20036;-76
2022/03/30 00:56:30;;;;;;;24.17;14.65;;;;;;;;;;5032511;28;20037;-77
2022/03/30 00:58:56;;;;;;;19.63;14.10;;;;;;;;;;5032621;28;20034;-77
2022/03/30 01:01:23;;;;;;;26.13;17.25;;;;;;;;;;5032190;28;20108;-76
2022/03/30 01:03:50;;;;;;;19.95;14.10;;;;;;;;;;5032531;28;20485;-78
2022/03/30 01:06:16;;;;;;;20.40;13.73;;;;;;;;;;5032100;28;20027;-80
2022/03/30 01:08:43;;;;;;;21.10;13.65;;;;;;;;;;5032541;28;20073;-77
2022/03/30 01:11:12;;;;;;;24.17;14.30;;;;;;;;;;5032190;28;20033;-77
2022/03/30 01:13:38;;;;;;;19.98;14.10;;;;;;;;;;5032509;28;20033;-76
2022/03/30 01:16:05;;;;;;;21.83;13.05;;;;;;;;;;5032249;28;20026;-79
2022/03/30 01:18:37;;;;;;;21.67;13.70;;;;;;;;;;5032322;28;20034;-78
2022/03/30 01:21:04;;;;;;;24.02;14.50;;;;;;;;;;5032133;28;20488;-78
2022/03/30 01:23:30;;;;;;;19.85;13.48;;;;;;;;;;5032138;28;20036;-80
2022/03/30 01:25:56;;;;;;;23.70;14.73;;;;;;;;;;5032297;28;20108;-78
2022/03/30 01:28:27;;;;;;;22.17;15.23;;;;;;;;;;5031880;28;20021;-76
2022/03/30 01:33:42;;;;;;;26.20;16.00;;;;;;;;;;5032340;28;20095;-76
2022/03/30 01:36:09;;;;;;;20.33;13.68;;;;;;;;;;5030662;28;20372;-79
2022/03/30 01:38:35;;;;;;;18.77;13.32;;;;;;;;;;5032203;28;20468;-77
2022/03/30 01:41:01;;;;;;;17.95;12.02;;;;;;;;;;5031803;28;20485;-76
2022/03/30 01:43:28;;;;;;;20.60;13.13;;;;;;;;;;5031856;28;20034;-78
2022/03/30 01:45:55;;;;;;;17.50;13.63;;;;;;;;;;5031578;28;20075;-78
2022/03/30 01:48:21;;;;;;;18.48;12.57;;;;;;;;;;5031935;28;20034;-77
2022/03/30 01:50:47;;;;;;;18.40;12.10;;;;;;;;;;5032468;28;20040;-78
2022/03/30 01:53:14;;;;;;;16.80;12.63;;;;;;;;;;5036083;28;20372;-79
2022/03/30 01:55:40;;;;;;;21.27;13.60;;;;;;;;;;5035550;28;20077;-78
2022/03/30 01:58:06;;;;;;;21.23;12.98;;;;;;;;;;5035601;28;20033;-79
2022/03/30 02:00:32;;;;;;;19.63;12.52;;;;;;;;;;5035906;28;20036;-79
2022/03/30 02:02:58;;;;;;;21.50;12.75;;;;;;;;;;5035714;28;20080;-79
2022/03/30 02:05:25;;;;;;;22.40;11.50;;;;;;;;;;5035712;28;20032;-79
2022/03/30 02:07:51;;;;;;;21.60;12.73;;;;;;;;;;5035702;28;20072;-78
2022/03/30 02:10:17;;;;;;;17.83;12.90;;;;;;;;;;5035346;28;20033;-75
2022/03/30 02:12:43;;;;;;;21.17;12.68;;;;;;;;;;5035727;28;20092;-78
2022/03/30 02:15:10;;;;;;;17.70;12.07;;;;;;;;;;5035441;28;20064;-77
2022/03/30 02:17:37;;;;;;;19.33;12.18;;;;;;;;;;5034798;28;20075;-79
2022/03/30 02:20:05;;;;;;;22.30;13.45;;;;;;;;;;5034718;28;20419;-77
2022/03/30 02:22:31;;;;;;;19.38;12.70;;;;;;;;;;5034624;28;20032;-77
2022/03/30 02:24:59;;;;;;;18.98;11.82;;;;;;;;;;5034519;28;20075;-78
2022/03/30 02:27:25;;;;;;;18.42;12.02;;;;;;;;;;5034755;28;20476;-80
2022/03/30 02:29:52;;;;;;;16.27;11.65;;;;;;;;;;5034477;28;20080;-78
2022/03/30 02:32:18;;;;;;;18.60;11.35;;;;;;;;;;5034467;28;20057;-79
2022/03/30 02:34:45;;;;;;;16.33;11.27;;;;;;;;;;5035369;28;20025;-77
2022/03/30 02:37:12;;;;;;;17.45;11.80;;;;;;;;;;5034855;28;20036;-77
2022/03/30 02:39:38;;;;;;;22.13;15.82;;;;;;;;;;5035244;28;20100;-76
2022/03/30 02:42:07;;;;;;;34.45;25.55;;;;;;;;;;5034881;28;20025;-77
2022/03/30 02:44:34;;;;;;;21.70;12.23;;;;;;;;;;5035061;28;20033;-77
2022/03/30 02:47:01;;;;;;;16.08;11.10;;;;;;;;;;5034968;28;20021;-77
2022/03/30 02:49:27;;;;;;;18.92;11.35;;;;;;;;;;5034976;28;20485;-79
2022/03/30 02:51:53;;;;;;;17.77;12.35;;;;;;;;;;5034756;28;20469;-80
2022/03/30 02:54:20;;;;;;;17.65;11.88;;;;;;;;;;5033441;28;20088;-79
2022/03/30 02:56:46;;;;;;;16.42;12.55;;;;;;;;;;5034906;28;20037;-79
2022/03/30 02:59:12;;;;;;;17.05;12.50;;;;;;;;;;5034470;28;20069;-79
2022/03/30 03:01:38;;;;;;;17.85;11.20;;;;;;;;;;5034434;28;20029;-79
2022/03/30 03:04:05;;;;;;;21.45;12.52;;;;;;;;;;5034740;28;20102;-80
2022/03/30 03:06:32;;;;;;;19.55;11.52;;;;;;;;;;5034468;28;20032;-77
2022/03/30 03:08:58;;;;;;;16.85;11.35;;;;;;;;;;5034760;28;20068;-77
2022/03/30 03:11:24;;;;;;;22.42;11.82;;;;;;;;;;5033041;28;20033;-76
2022/03/30 03:13:51;;;;;;;18.02;11.52;;;;;;;;;;5034417;28;20033;-76
2022/03/30 03:16:18;;;;;;;22.25;11.00;;;;;;;;;;5034187;28;20026;-76
2022/03/30 03:18:44;;;;;;;20.40;12.27;;;;;;;;;;5034465;28;20032;-76
2022/03/30 03:21:10;;;;;;;33.33;21.20;;;;;;;;;;5034324;28;20060;-78
2022/03/30 03:23:37;;;;;;;21.85;13.70;;;;;;;;;;5034458;28;20021;-80
2022/03/30 03:26:03;;;;;;;20.77;11.93;;;;;;;;;;5034310;28;20439;-75
2022/03/30 03:28:30;;;;;;;39.47;23.85;;;;;;;;;;5034056;28;20424;-80
2022/03/30 03:30:56;;;;;;;18.10;12.52;;;;;;;;;;5034145;28;20547;-78
2022/03/30 03:33:22;;;;;;;25.15;15.50;;;;;;;;;;5033826;28;20033;-78
2022/03/30 03:35:48;;;;;;;25.38;17.13;;;;;;;;;;5034004;28;20101;-78
2022/03/30 03:38:14;;;;;;;18.92;12.77;;;;;;;;;;5033991;28;20037;-78
2022/03/30 03:40:40;;;;;;;17.27;12.15;;;;;;;;;;5034175;28;20412;-78
2022/03/30 03:43:07;;;;;;;18.23;11.90;;;;;;;;;;5034172;28;20389;-79
2022/03/30 03:45:33;;;;;;;18.73;11.65;;;;;;;;;;5033598;28;20087;-79
2022/03/30 03:48:00;;;;;;;19.75;11.40;;;;;;;;;;5034029;28;20049;-76
2022/03/30 03:50:29;;;;;;;19.65;11.52;;;;;;;;;;5033611;28;20076;-79
2022/03/30 03:52:56;;;;;;;16.58;10.20;;;;;;;;;;5033917;28;20033;-76
2022/03/30 03:55:22;;;;;;;18.13;10.77;;;;;;;;;;5033133;28;20049;-75
2022/03/30 03:57:50;;;;;;;16.13;10.80;;;;;;;;;;5033665;28;20465;-76
2022/03/30 04:00:16;;;;;;;23.60;13.30;;;;;;;;;;5033406;28;20492;-77
2022/03/30 04:02:43;;;;;;;21.27;12.95;;;;;;;;;;5033952;28;20028;-79
2022/03/30 04:05:09;;;;;;;18.98;12.98;;;;;;;;;;5033589;28;20108;-79
2022/03/30 04:07:37;;;;;;;18.08;11.93;;;;;;;;;;5033481;28;20108;-78
2022/03/30 04:10:04;;;;;;;18.15;12.60;;;;;;;;;;5032276;28;20067;-78
2022/03/30 04:12:30;;;;;;;23.15;11.68;;;;;;;;;;5033773;28;20029;-82
2022/03/30 04:14:56;;;;;;;18.88;12.18;;;;;;;;;;5033355;28;20774;-82
2022/03/30 04:17:22;;;;;;;18.05;11.60;;;;;;;;;;5033648;28;20029;-78
2022/03/30 04:19:48;;;;;;;16.95;11.95;;;;;;;;;;5033835;28;20034;-76
2022/03/30 04:22:14;;;;;;;22.13;13.98;;;;;;;;;;5032713;28;20018;-80
2022/03/30 04:24:41;;;;;;;25.10;18.10;;;;;;;;;;5033092;28;20033;-81
2022/03/30 04:27:07;;;;;;;28.50;20.88;;;;;;;;;;5033491;28;20051;-82
2022/03/30 04:29:33;;;;;;;26.63;22.08;;;;;;;;;;5033381;28;20040;-78
2022/03/30 04:32:00;;;;;;;24.88;17.83;;;;;;;;;;5032413;28;20037;-82
2022/03/30 04:34:26;;;;;;;25.58;20.00;;;;;;;;;;5033543;28;20063;-79
2022/03/30 04:36:52;;;;;;;29.73;18.98;;;;;;;;;;5033188;28;20110;-80
2022/03/30 04:39:19;;;;;;;26.67;20.67;;;;;;;;;;5033719;28;20063;-79
2022/03/30 04:41:45;;;;;;;25.05;17.58;;;;;;;;;;5032996;28;20029;-80
2022/03/30 04:44:14;;;;;;;25.35;18.10;;;;;;;;;;5031870;28;20033;-81
2022/03/30 04:46:40;;;;;;;27.38;19.73;;;;;;;;;;5032082;28;20415;-78
2022/03/30 04:49:06;;;;;;;27.35;20.33;;;;;;;;;;5031497;28;20025;-79
2022/03/30 04:51:32;;;;;;;29.58;19.05;;;;;;;;;;5032593;28;20060;-79
2022/03/30 04:53:58;;;;;;;28.23;17.00;;;;;;;;;;5032426;28;20469;-78
2022/03/30 04:56:25;;;;;;;40.10;21.42;;;;;;;;;;5032077;28;20591;-76
2022/03/30 04:58:51;;;;;;;32.95;17.10;;;;;;;;;;5031954;28;20034;-77
2022/03/30 05:01:17;;;;;;;21.50;13.43;;;;;;;;;;5032461;28;20061;-77
2022/03/30 05:03:43;;;;;;;27.50;16.20;;;;;;;;;;5032215;28;20540;-78
2022/03/30 05:06:09;;;;;;;24.35;14.90;;;;;;;;;;5032373;28;20120;-76
2022/03/30 05:08:35;;;;;;;22.02;14.35;;;;;;;;;;5019478;28;20026;-77
2022/03/30 05:11:01;;;;;;;21.33;15.98;;;;;;;;;;5012585;28;20382;-77
2022/03/30 05:13:27;;;;;;;24.33;15.63;;;;;;;;;;5011328;28;20029;-77
2022/03/30 05:15:54;;;;;;;23.00;13.65;;;;;;;;;;5012428;28;20527;-77
2022/03/30 05:18:22;;;;;;;25.52;16.20;;;;;;;;;;5012016;28;20079;-77
2022/03/30 05:20:48;;;;;;;26.50;18.17;;;;;;;;;;5020370;28;20030;-76
2022/03/30 05:23:17;;;;;;;27.10;17.70;;;;;;;;;;5030913;28;20108;-76
2022/03/30 05:25:43;;;;;;;35.25;20.73;;;;;;;;;;5030519;28;20022;-76
2022/03/30 05:28:09;;;;;;;26.27;17.90;;;;;;;;;;5031354;28;20031;-76
2022/03/30 05:30:36;;;;;;;27.00;19.02;;;;;;;;;;5029092;28;20029;-78
2022/03/30 05:33:02;;;;;;;25.02;17.90;;;;;;;;;;5028206;28;20043;-84
2022/03/30 05:35:28;;;;;;;22.25;14.77;;;;;;;;;;5031040;28;20021;-83
2022/03/30 05:37:54;;;;;;;21.95;14.88;;;;;;;;;;5031267;28;20029;-81
2022/03/30 05:40:24;;;;;;;20.80;12.73;;;;;;;;;;5029343;28;20030;-81
2022/03/30 05:42:50;;;;;;;20.75;13.50;;;;;;;;;;5027911;28;20029;-85
2022/03/30 05:45:16;;;;;;;20.55;12.73;;;;;;;;;;5032036;28;20029;-81
2022/03/30 05:47:43;;;;;;;17.90;12.07;;;;;;;;;;5030507;28;20026;-81
2022/03/30 05:50:09;;;;;;;16.15;11.75;;;;;;;;;;5031214;28;20026;-82
2022/03/30 05:52:36;;;;;;;19.10;11.48;;;;;;;;;;5030963;28;20030;-80
2022/03/30 05:55:02;;;;;;;18.08;11.85;;;;;;;;;;5030007;28;20508;-79
2022/03/30 05:57:28;;;;;;;21.58;14.77;;;;;;;;;;5031998;28;20142;-85
2022/03/30 05:59:54;;;;;;;20.15;12.98;;;;;;;;;;5029675;28;20543;-84
2022/03/30 06:02:20;;;;;;;17.63;13.35;;;;;;;;;;5031230;28;20079;-82
2022/03/30 06:04:49;;;;;;;18.77;13.77;;;;;;;;;;5032075;28;20040;-83
2022/03/30 06:07:15;;;;;;;22.10;16.17;;;;;;;;;;5031488;28;20025;-84
2022/03/30 06:09:41;;;;;;;23.75;15.38;;;;;;;;;;5030932;28;20117;-79
2022/03/30 06:12:08;;;;;;;22.42;16.23;;;;;;;;;;5031224;28;20037;-82
2022/03/30 06:14:35;;;;;;;23.10;15.77;;;;;;;;;;5031262;28;20033;-81
2022/03/30 06:17:03;;;;;;;20.60;14.32;;;;;;;;;;5030983;28;20029;-80
2022/03/30 06:19:30;;;;;;;21.83;14.90;;;;;;;;;;5031960;28;20028;-79
2022/03/30 06:21:57;;;;;;;24.40;14.82;;;;;;;;;;5031674;28;20026;-79
2022/03/30 06:24:23;;;;;;;23.83;17.50;;;;;;;;;;5031564;28;20022;-83
2022/03/30 06:26:49;;;;;;;22.17;16.63;;;;;;;;;;5031340;28;20029;-78
2022/03/30 06:29:15;;;;;;;22.80;16.85;;;;;;;;;;5030125;28;20121;-80
2022/03/30 06:31:42;;;;;;;26.30;18.27;;;;;;;;;;5030433;28;20041;-83
2022/03/30 06:34:11;;;;;;;96.20;74.18;;;;;;;;;;5031481;28;20041;-81
2022/03/30 06:36:38;;;;;;;31.35;22.20;;;;;;;;;;5031680;28;20026;-78
2022/03/30 06:39:05;;;;;;;37.83;26.20;;;;;;;;;;5034633;28;20097;-77
2022/03/30 06:41:31;;;;;;;39.35;26.65;;;;;;;;;;5035259;28;20041;-81
2022/03/30 06:43:57;;;;;;;42.60;29.83;;;;;;;;;;5033878;28;20033;-83
2022/03/30 06:46:23;;;;;;;41.55;31.35;;;;;;;;;;5034995;28;20032;-79
2022/03/30 06:48:50;;;;;;;36.35;25.52;;;;;;;;;;5033991;28;20021;-82
2022/03/30 06:51:16;;;;;;;30.55;22.15;;;;;;;;;;5034660;28;20034;-83
2022/03/30 06:53:42;;;;;;;30.00;19.98;;;;;;;;;;5033892;28;20034;-84
2022/03/30 06:56:09;;;;;;;33.55;21.73;;;;;;;;;;5034435;28;20057;-80
2022/03/30 06:58:35;;;;;;;32.08;21.20;;;;;;;;;;5032589;28;20485;-76
2022/03/30 07:01:01;;;;;;;30.20;19.95;;;;;;;;;;5034390;28;20029;-80
2022/03/30 07:03:28;;;;;;;32.25;22.17;;;;;;;;;;5034913;28;20025;-83
2022/03/30 07:05:55;;;;;;;28.77;19.75;;;;;;;;;;5033775;28;20384;-80
2022/03/30 07:11:05;;;;;;;24.90;17.92;;;;;;;;;;5034366;28;20128;-83
2022/03/30 07:13:31;;;;;;;25.73;18.30;;;;;;;;;;5034221;28;20491;-79
2022/03/30 07:15:57;;;;;;;27.95;17.98;;;;;;;;;;5033634;28;20080;-80
2022/03/30 07:18:24;;;;;;;25.13;16.30;;;;;;;;;;5034266;28;20025;-81
2022/03/30 07:20:50;;;;;;;22.63;16.85;;;;;;;;;;5034549;28;20495;-80
2022/03/30 07:23:16;;;;;;;22.80;16.13;;;;;;;;;;5034231;28;20048;-81
2022/03/30 07:25:42;;;;;;;19.95;15.38;;;;;;;;;;5035840;28;20030;-81
2022/03/30 07:28:09;;;;;;;20.92;14.90;;;;;;;;;;5034681;28;20559;-80
2022/03/30 07:30:37;;;;;;;17.80;13.95;;;;;;;;;;5032607;28;20038;-80
2022/03/30 07:33:03;;;;;;;22.55;13.77;;;;;;;;;;5033943;28;20026;-78
2022/03/30 07:35:32;;;;;;;19.65;13.77;;;;;;;;;;5033416;28;20108;-79
2022/03/30 07:37:59;;;;;;;19.33;12.88;;;;;;;;;;5033015;28;20120;-79
2022/03/30 07:40:25;;;;;;;22.05;14.30;;;;;;;;;;5032819;28;20026;-80
2022/03/30 07:42:52;;;;;;;26.23;15.38;;;;;;;;;;5033809;28;20034;-80
2022/03/30 07:45:19;;;;;;;20.75;14.48;;;;;;;;;;5033642;28;20052;-81
2022/03/30 07:47:45;;;;;;;20.10;14.88;;;;;;;;;;5033530;28;20026;-82
2022/03/30 07:50:12;;;;;;;23.83;15.30;;;;;;;;;;5032735;28;20487;-78
2022/03/30 07:52:38;;;;;;;26.83;14.65;;;;;;;;;;5033337;28;20021;-79
2022/03/30 07:55:05;;;;;;;20.15;14.50;;;;;;;;;;5032617;28;20064;-79
2022/03/30 07:57:32;;;;;;;28.88;16.10;;;;;;;;;;5033546;28;20040;-82
2022/03/30 07:59:59;;;;;;;20.27;13.60;;;;;;;;;;5033077;28;20063;-80
2022/03/30 08:02:27;;;;;;;17.52;11.50;;;;;;;;;;5033135;28;20033;-81
2022/03/30 08:04:53;;;;;;;17.75;11.48;;;;;;;;;;5033621;28;20026;-80
2022/03/30 08:07:19;;;;;;;16.13;11.93;;;;;;;;;;5032802;28;20030;-82
2022/03/30 08:09:45;;;;;;;30.42;13.63;;;;;;;;;;5033783;28;20543;-81
2022/03/30 08:12:12;;;;;;;18.77;11.90;;;;;;;;;;5033152;28;20041;-78
2022/03/30 08:14:39;;;;;;;20.13;11.90;;;;;;;;;;5033682;28;20107;-77
2022/03/30 08:17:05;;;;;;;17.05;11.48;;;;;;;;;;5033335;28;20029;-83
2022/03/30 08:19:31;;;;;;;26.83;12.88;;;;;;;;;;5032992;28;20117;-78
2022/03/30 08:27:28;;;;;;;18.00;12.20;;;;;;;;;;5032732;28;20033;-80
2022/03/30 08:29:55;;;;;;;17.48;11.32;;;;;;;;;;5032512;28;20070;-82
2022/03/30 08:32:22;;;;;;;17.23;10.15;;;;;;;;;;5031952;28;20042;-81
2022/03/30 08:34:49;;;;;;;20.15;13.82;;;;;;;;;;5032888;28;20143;-78
2022/03/30 08:37:16;;;;;;;16.52;11.95;;;;;;;;;;5032861;28;20091;-78
2022/03/30 08:39:42;;;;;;;20.20;12.63;;;;;;;;;;5032590;28;20137;-77
2022/03/30 08:42:09;;;;;;;18.42;12.93;;;;;;;;;;5031948;28;20148;-78
2022/03/30 08:44:37;;;;;;;16.75;11.55;;;;;;;;;;5032154;28;20537;-79
2022/03/30 08:47:11;;;;;;;17.70;11.90;;;;;;;;;;5032487;28;20029;-77
2022/03/30 08:49:38;;;;;;;17.27;11.75;;;;;;;;;;5030234;28;20075;-80
2022/03/30 08:52:06;;;;;;;16.90;12.25;;;;;;;;;;5030469;28;20125;-82
2022/03/30 08:54:32;;;;;;;15.85;10.93;;;;;;;;;;5032359;28;20064;-82
2022/03/30 08:56:59;;;;;;;13.68;10.38;;;;;;;;;;5032394;28;20037;-81
2022/03/30 08:59:25;;;;;;;20.88;13.98;;;;;;;;;;5031741;28;20064;-80
2022/03/30 09:01:53;;;;;;;18.73;13.95;;;;;;;;;;5031166;28;20076;-84
2022/03/30 09:04:20;;;;;;;21.92;13.13;;;;;;;;;;5031597;28;20048;-80
2022/03/30 09:06:47;;;;;;;20.55;13.27;;;;;;;;;;5032875;28;20021;-79
2022/03/30 09:09:14;;;;;;;24.75;15.30;;;;;;;;;;5032143;28;20025;-80
2022/03/30 09:11:41;;;;;;;20.17;13.75;;;;;;;;;;5032300;28;20037;-83
2022/03/30 09:14:07;;;;;;;35.10;22.63;;;;;;;;;;5032373;28;20104;-77
2022/03/30 09:17:00;;;;;;;26.35;14.68;;;;;;;;;;5031769;28;20033;-82
2022/03/30 09:19:26;;;;;;;16.27;11.13;;;;;;;;;;5028250;28;20041;-77
2022/03/30 09:22:01;;;;;;;17.45;13.43;;;;;;;;;;5032300;28;20384;-75
2022/03/30 09:24:29;;;;;;;17.02;11.57;;;;;;;;;;5031901;28;20511;-77
2022/03/30 09:26:56;;;;;;;18.55;11.63;;;;;;;;;;5031675;28;20033;-77
2022/03/30 09:29:23;;;;;;;14.45;10.80;;;;;;;;;;5031840;28;20044;-77
2022/03/30 09:31:50;;;;;;;17.58;11.05;;;;;;;;;;5031205;28;20029;-79
2022/03/30 09:34:16;;;;;;;17.73;10.00;;;;;;;;;;5031110;28;20549;-76
2022/03/30 09:36:43;;;;;;;15.48;11.07;;;;;;;;;;5032319;28;20487;-80
2022/03/30 09:39:28;;;;;;;20.45;12.50;;;;;;;;;;5031410;28;20510;-79
2022/03/30 09:41:56;;;;;;;28.05;11.50;;;;;;;;;;5032015;28;20392;-80
2022/03/30 09:44:42;;;;;;;21.88;10.80;;;;;;;;;;5032166;28;20033;-79
2022/03/30 09:47:08;;;;;;;12.38;9.23;;;;;;;;;;5031620;28;20037;-75
2022/03/30 09:49:34;;;;;;;18.08;10.10;;;;;;;;;;5031846;28;20044;-76
2022/03/30 09:52:01;;;;;;;18.73;10.23;;;;;;;;;;5031632;28;20152;-76
2022/03/30 09:54:49;;;;;;;20.58;15.10;;;;;;;;;;5031414;28;20089;-77
2022/03/30 09:57:17;;;;;;;19.40;9.23;;;;;;;;;;5026455;28;20041;-78
2022/03/30 09:59:58;;;;;;;16.27;10.02;;;;;;;;;;5031363;28;20037;-77
2022/03/30 10:02:24;;;;;;;13.20;8.80;;;;;;;;;;5012011;28;20025;-79
2022/03/30 10:04:51;;;;;;;16.58;9.68;;;;;;;;;;5012679;28;20437;-79
2022/03/30 10:07:17;;;;;;;28.70;12.25;;;;;;;;;;5022034;28;20037;-79
2022/03/30 10:09:44;;;;;;;17.67;10.60;;;;;;;;;;5030993;28;20031;-78
2022/03/30 10:12:12;;;;;;;15.43;9.70;;;;;;;;;;5025808;28;20060;-78
2022/03/30 10:14:39;;;;;;;15.68;9.73;;;;;;;;;;5035614;28;20560;-78
2022/03/30 10:17:06;;;;;;;15.55;8.23;;;;;;;;;;5036103;28;20501;-78
2022/03/30 10:19:32;;;;;;;18.00;9.02;;;;;;;;;;5035485;28;20042;-81
2022/03/30 10:22:17;;;;;;;18.35;11.48;;;;;;;;;;5035146;28;20025;-80
2022/03/30 10:25:02;;;;;;;27.45;18.00;;;;;;;;;;5035437;28;20025;-79
2022/03/30 10:27:47;;;;;;;18.38;13.38;;;;;;;;;;5035253;28;20029;-80
2022/03/30 10:30:13;;;;;;;;;;;;;;;;;;5035765;28;20022;-80
2022/03/30 10:32:40;;;;;;;22.45;13.95;;;;;;;;;;5035126;28;20371;-81
2022/03/30 10:35:13;;;;;;;17.30;11.75;;;;;;;;;;5035660;28;20021;-82
2022/03/30 10:37:43;;;;;;;18.27;11.05;;;;;;;;;;5035054;28;20084;-82
2022/03/30 10:40:11;;;;;;;17.17;8.82;;;;;;;;;;5035342;28;20033;-81
2022/03/30 10:42:58;;;;;;;19.73;11.88;;;;;;;;;;5035179;28;20025;-78
2022/03/30 10:45:27;;;;;;;15.10;8.50;;;;;;;;;;5035003;28;20465;-79
2022/03/30 10:48:11;;;;;;;19.80;9.65;;;;;;;;;;5035080;28;20104;-82
2022/03/30 10:51:04;;;;;;;14.25;9.02;;;;;;;;;;5034821;28;20037;-83
2022/03/30 10:53:35;;;;;;;16.75;11.32;;;;;;;;;;5019400;28;20044;-79
2022/03/30 10:56:07;;;;;;;23.02;17.25;;;;;;;;;;5034861;28;20057;-79
2022/03/30 10:58:34;;;;;;;19.70;16.33;;;;;;;;;;5034913;28;20116;-80
2022/03/30 11:01:21;;;;;;;18.38;13.30;;;;;;;;;;5034376;28;20036;-82
2022/03/30 11:04:06;;;;;;;26.98;12.70;;;;;;;;;;5034437;28;20055;-80
2022/03/30 11:06:32;;;;;;;;;;;;;;;;;;5033259;28;20384;-79
2022/03/30 11:08:59;;;;;;;30.25;14.73;;;;;;;;;;5034775;28;19905;-80
2022/03/30 11:11:34;;;;;;;26.15;14.55;;;;;;;;;;5031896;28;20382;-79
2022/03/30 11:14:19;;;;;;;16.30;8.68;;;;;;;;;;5034520;28;20079;-81
2022/03/30 11:16:49;;;;;;;24.13;9.95;;;;;;;;;;5034040;28;20516;-76
2022/03/30 11:19:15;;;;;;;16.75;7.72;;;;;;;;;;5034638;28;20472;-76
2022/03/30 11:21:52;;;;;;;14.70;6.05;;;;;;;;;;5032726;28;20040;-79
2022/03/30 11:24:19;;;;;;;13.35;6.65;;;;;;;;;;5034471;28;20022;-80
2022/03/30 11:26:48;;;;;;;13.88;6.07;;;;;;;;;;5034140;28;20030;-81
2022/03/30 11:29:33;;;;;;;15.40;6.95;;;;;;;;;;5034174;28;20033;-79
2022/03/30 11:31:59;;;;;;;24.58;19.15;;;;;;;;;;5033300;28;20049;-80
2022/03/30 11:34:34;;;;;;;29.58;17.67;;;;;;;;;;5034284;28;20026;-80
2022/03/30 11:37:01;;;;;;;19.30;14.10;;;;;;;;;;5032472;28;20036;-77
2022/03/30 11:39:34;;;;;;;33.65;8.63;;;;;;;;;;5034415;28;20477;-79
2022/03/30 11:42:01;;;;;;;16.87;8.93;;;;;;;;;;5033528;28;20543;-77
2022/03/30 11:47:17;;;;;;;16.13;6.65;;;;;;;;;;5033582;28;20044;-82
2022/03/30 11:50:02;;;;;;;18.58;5.53;;;;;;;;;;5033629;28;20022;-80
2022/03/30 11:52:28;;;;;;;13.02;5.93;;;;;;;;;;5033390;28;20049;-81
2022/03/30 11:54:55;;;;;;;13.77;6.10;;;;;;;;;;5032668;28;20393;-79
2022/03/30 11:57:22;;;;;;;12.02;5.88;;;;;;;;;;5033162;28;20061;-82
2022/03/30 11:59:57;;;;;;;11.75;5.50;;;;;;;;;;5033684;28;20087;-81
2022/03/30 12:02:24;;;;;;;16.98;7.55;;;;;;;;;;5032622;28;20033;-81
2022/03/30 12:04:50;;;;;;;14.98;6.35;;;;;;;;;;5033688;28;20044;-83
2022/03/30 12:07:16;;;;;;;14.40;5.28;;;;;;;;;;5035275;28;20094;-78
2022/03/30 12:09:49;;;;;;;10.88;4.65;;;;;;;;;;5033694;28;20105;-85
2022/03/30 12:12:26;;;;;;;13.60;5.28;;;;;;;;;;5033616;28;20057;-84
2022/03/30 12:15:11;;;;;;;16.58;6.28;;;;;;;;;;5032528;28;20055;-82
2022/03/30 12:17:38;;;;;;;14.18;5.72;;;;;;;;;;5033459;28;20055;-83
2022/03/30 12:20:06;;;;;;;11.13;5.70;;;;;;;;;;5031111;28;20044;-81
2022/03/30 12:22:33;;;;;;;12.43;5.53;;;;;;;;;;5033301;28;20220;-81
2022/03/30 12:24:59;;;;;;;10.70;4.88;;;;;;;;;;5033309;28;20366;-80
2022/03/30 12:27:25;;;;;;;10.75;4.32;;;;;;;;;;5032625;28;20040;-80
2022/03/30 12:29:55;;;;;;;15.73;4.88;;;;;;;;;;5032543;28;20048;-82
2022/03/30 12:32:25;;;;;;;13.90;4.60;;;;;;;;;;5032493;28;20049;-79
2022/03/30 12:35:05;;;;;;;12.48;3.88;;;;;;;;;;5031709;28;20103;-80
2022/03/30 12:37:31;;;;;;;24.75;5.90;;;;;;;;;;5029260;28;20021;-75
2022/03/30 12:40:07;;;;;;;39.58;8.23;;;;;;;;;;5031672;28;20025;-77
2022/03/30 12:42:34;;;;;;;18.52;5.78;;;;;;;;;;5032796;28;20025;-79
2022/03/30 12:45:10;;;;;;;22.90;6.28;;;;;;;;;;5031355;28;20025;-80
2022/03/30 12:47:49;;;;;;;30.90;9.65;;;;;;;;;;5032760;28;20052;-75
2022/03/30 12:50:25;;;;;;;38.35;15.00;;;;;;;;;;5031899;28;20040;-79
2022/03/30 12:52:52;;;;;;;23.58;8.90;;;;;;;;;;5031650;28;20098;-78
2022/03/30 12:55:32;;;;;;;62.15;22.75;;;;;;;;;;5032334;28;20053;-76
2022/03/30 12:57:58;;;;;;;59.50;23.80;;;;;;;;;;5032595;28;20037;-80
2022/03/30 13:00:26;;;;;;;42.50;15.43;;;;;;;;;;5032754;28;20452;-80
2022/03/30 13:03:07;;;;;;;44.35;16.58;;;;;;;;;;5031097;28;20029;-80
2022/03/30 13:05:34;;;;;;;24.75;8.30;;;;;;;;;;5032474;28;20061;-77
2022/03/30 13:08:00;;;;;;;25.58;10.32;;;;;;;;;;5030887;28;20032;-76
2022/03/30 13:10:26;;;;;;;21.27;6.60;;;;;;;;;;5032583;28;20048;-78
2022/03/30 13:12:56;;;;;;;19.27;6.28;;;;;;;;;;5032303;28;20071;-79
2022/03/30 13:15:26;;;;;;;16.42;5.10;;;;;;;;;;5031904;28;20040;-77
2022/03/30 13:18:11;;;;;;;13.75;4.97;;;;;;;;;;5032618;28;20026;-76
2022/03/30 13:20:39;;;;;;;18.15;4.85;;;;;;;;;;5032628;28;20484;-76
2022/03/30 13:23:07;;;;;;;13.07;4.30;;;;;;;;;;5031603;28;20031;-76
2022/03/30 13:25:43;;;;;;;21.42;5.00;;;;;;;;;;5032060;28;20049;-78
2022/03/30 13:28:20;;;;;;;15.13;5.18;;;;;;;;;;5031489;28;20022;-78
2022/03/30 13:30:46;;;;;;;15.98;4.05;;;;;;;;;;5032120;28;20029;-75
2022/03/30 13:33:12;;;;;;;28.20;6.20;;;;;;;;;;5031376;28;20477;-77
2022/03/30 13:35:39;;;;;;;14.55;4.45;;;;;;;;;;5032476;28;20029;-79
2022/03/30 13:38:15;;;;;;;13.40;3.97;;;;;;;;;;5032245;28;20473;-77
2022/03/30 13:40:41;;;;;;;20.13;5.45;;;;;;;;;;5032018;28;20026;-76
2022/03/30 13:43:07;;;;;;;15.10;5.40;;;;;;;;;;5031263;28;20091;-77
2022/03/30 13:45:33;;;;;;;18.35;5.05;;;;;;;;;;5031278;28;20060;-80
2022/03/30 13:47:59;;;;;;;17.38;8.45;;;;;;;;;;5036365;28;20042;-79
2022/03/30 13:50:26;;;;;;;13.27;5.55;;;;;;;;;;5035184;28;20077;-77
2022/03/30 13:52:52;;;;;;;17.25;5.00;;;;;;;;;;5036358;28;20091;-78
2022/03/30 13:55:21;;;;;;;11.65;3.53;;;;;;;;;;5040919;28;20056;-78
2022/03/30 13:57:47;;;;;;;15.32;3.80;;;;;;;;;;5056455;28;20044;-77
2022/03/30 14:00:13;;;;;;;15.15;5.90;;;;;;;;;;5055771;28;20025;-79
2022/03/30 14:02:39;;;;;;;29.45;20.70;;;;;;;;;;5051550;28;20132;-78
2022/03/30 14:05:06;;;;;;;25.15;16.73;;;;;;;;;;5035860;28;20033;-79
2022/03/30 14:07:32;;;;;;;26.38;9.30;;;;;;;;;;5035512;28;20396;-76
2022/03/30 14:09:59;;;;;;;16.50;6.65;;;;;;;;;;5036226;28;20026;-77
2022/03/30 14:12:27;;;;;;;15.70;4.95;;;;;;;;;;5035378;28;20033;-77
2022/03/30 14:14:54;;;;;;;13.50;5.22;;;;;;;;;;5035950;28;20021;-78
2022/03/30 14:17:21;;;;;;;16.13;5.55;;;;;;;;;;5035172;28;20068;-76
2022/03/30 14:19:48;;;;;;;16.73;4.78;;;;;;;;;;5036029;28;20064;-79
2022/03/30 14:22:14;;;;;;;15.65;5.82;;;;;;;;;;5034692;28;20048;-79
2022/03/30 14:24:41;;;;;;;11.98;5.65;;;;;;;;;;5035321;28;20029;-77
2022/03/30 14:27:07;;;;;;;17.65;5.20;;;;;;;;;;5035181;28;20033;-78
2022/03/30 14:32:37;;;;;;;15.05;5.25;;;;;;;;;;5035280;28;20041;-77
2022/03/30 14:35:04;;;;;;;20.67;5.93;;;;;;;;;;5035480;28;20116;-79
2022/03/30 14:37:31;;;;;;;16.67;6.25;;;;;;;;;;5034871;28;20025;-78
2022/03/30 14:39:58;;;;;;;18.85;6.32;;;;;;;;;;5035463;28;20040;-78
2022/03/30 14:42:24;;;;;;;18.42;6.88;;;;;;;;;;5034959;28;20088;-75